Time;durP1;ratioP1;P1;durP2;ratioP2;P2;SDS_P1;SDS_P2;PMS_P1;PMS_P2;Temp;Humidity;BMP_temperature;BMP_pressure;BME280_temperature;BME280_humidity;BME280_pressure;Samples;Min_cycle;Max_cycle;Signal;HPM_P1;HPM_P2
2021/03/08 00:00:38;;;;;;;39.37;27.27;;;;;;;3.22;65.44;102448.66;5077493;28;20111;-41
2021/03/08 00:03:05;;;;;;;37.63;26.88;;;;;;;3.17;66.48;102461.56;5077402;28;20049;-41
2021/03/08 00:05:31;;;;;;;40.70;26.63;;;;;;;3.19;67.20;102456.09;5077028;28;20086;-41
2021/03/08 00:07:56;;;;;;;37.03;26.23;;;;;;;3.22;66.67;102455.81;5076928;28;20480;-41
2021/03/08 00:10:22;;;;;;;38.73;27.13;;;;;;;3.19;65.92;102453.44;5077168;28;20112;-41
2021/03/08 00:12:48;;;;;;;43.17;29.80;;;;;;;3.21;65.94;102462.16;5077733;28;20108;-40
2021/03/08 00:15:16;;;;;;;40.97;27.98;;;;;;;3.17;66.50;102460.75;5077090;28;20075;-41
2021/03/08 00:17:41;;;;;;;43.42;29.35;;;;;;;3.17;66.02;102450.88;5077060;28;20032;-41
2021/03/08 00:20:16;;;;;;;40.37;28.50;;;;;;;3.17;66.39;102439.34;5077500;28;20120;-41
2021/03/08 00:22:43;;;;;;;43.35;28.65;;;;;;;3.13;66.53;102446.84;5077254;28;20071;-41
2021/03/08 00:25:12;;;;;;;40.88;28.90;;;;;;;3.10;66.99;102455.13;5077175;28;20165;-41
2021/03/08 00:27:37;;;;;;;43.08;28.75;;;;;;;3.09;66.93;102454.28;5077085;28;20032;-41
2021/03/08 00:30:04;;;;;;;43.80;30.27;;;;;;;3.09;66.99;102448.09;5076691;28;20024;-41
2021/03/08 00:32:30;;;;;;;41.75;29.00;;;;;;;3.08;67.19;102454.44;5077050;28;20020;-41
2021/03/08 00:34:55;;;;;;;44.60;29.70;;;;;;;3.09;66.90;102448.09;5077200;28;20456;-40
2021/03/08 00:37:20;;;;;;;42.30;29.77;;;;;;;3.10;66.38;102441.75;5076651;28;20108;-41
2021/03/08 00:39:46;;;;;;;46.17;30.67;;;;;;;3.07;66.81;102439.38;5077432;28;20419;-40
2021/03/08 00:42:11;;;;;;;45.17;28.90;;;;;;;3.02;66.79;102428.25;5076330;28;20024;-41
2021/03/08 00:44:36;;;;;;;44.93;30.27;;;;;;;2.99;66.99;102439.25;5076585;28;20031;-41
2021/03/08 00:47:02;;;;;;;42.23;29.80;;;;;;;2.95;66.95;102448.53;5076196;28;20033;-41
2021/03/08 00:49:27;;;;;;;40.73;28.20;;;;;;;2.94;68.57;102455.72;5076328;28;20112;-41
2021/03/08 00:51:52;;;;;;;42.60;29.83;;;;;;;2.93;67.74;102453.16;5076595;28;20074;-41
2021/03/08 00:54:18;;;;;;;43.23;29.07;;;;;;;2.91;67.45;102445.28;5076347;28;20547;-41
2021/03/08 00:56:43;;;;;;;41.83;28.47;;;;;;;2.91;67.09;102439.13;5076233;28;20099;-41
2021/03/08 00:59:08;;;;;;;44.23;30.00;;;;;;;2.94;67.72;102441.50;5076558;28;20034;-41
2021/03/08 01:01:34;;;;;;;45.30;29.77;;;;;;;2.90;68.69;102440.09;5075978;28;20031;-41
2021/03/08 01:04:00;;;;;;;42.63;29.23;;;;;;;2.86;68.42;102446.72;5076632;28;20398;-41
2021/03/08 01:06:25;;;;;;;42.20;29.90;;;;;;;2.87;67.98;102438.53;5076427;28;20488;-41
2021/03/08 01:08:50;;;;;;;45.57;30.43;;;;;;;2.84;67.71;102439.69;5075592;28;20024;-41
2021/03/08 01:11:16;;;;;;;43.00;30.10;;;;;;;2.91;67.82;102423.91;5076360;28;20453;-41
2021/03/08 01:13:41;;;;;;;46.63;31.57;;;;;;;2.91;67.61;102429.25;5076580;28;20108;-41
2021/03/08 01:16:06;;;;;;;44.37;30.20;;;;;;;2.93;68.23;102431.78;5076058;28;20036;-41
2021/03/08 01:18:31;;;;;;;45.27;30.23;;;;;;;2.88;68.10;102420.69;5075632;28;20024;-41
2021/03/08 01:20:57;;;;;;;42.43;29.70;;;;;;;2.93;68.49;102423.75;5075986;28;20023;-41
2021/03/08 01:23:22;;;;;;;42.37;28.97;;;;;;;2.92;68.37;102425.59;5075767;28;20154;-41
2021/03/08 01:25:47;;;;;;;48.57;29.23;;;;;;;2.90;68.62;102419.56;5075866;28;20036;-41
2021/03/08 01:28:13;;;;;;;43.87;29.73;;;;;;;2.94;67.83;102415.63;5075433;28;20111;-41
2021/03/08 01:30:41;;;;;;;43.57;30.77;;;;;;;2.90;69.13;102414.22;5076451;28;20029;-41
2021/03/08 01:33:07;;;;;;;47.00;30.08;;;;;;;2.91;68.51;102413.22;5076201;28;20372;-41
2021/03/08 01:35:33;;;;;;;45.35;30.60;;;;;;;2.90;68.67;102416.91;5075918;28;20042;-41
2021/03/08 01:37:59;;;;;;;48.03;31.45;;;;;;;2.87;68.17;102410.97;5075232;28;20028;-41
2021/03/08 01:40:26;;;;;;;46.13;30.90;;;;;;;2.87;67.97;102411.81;5076154;28;20369;-41
2021/03/08 01:42:52;;;;;;;45.95;30.73;;;;;;;2.83;68.06;102408.63;5075757;28;20029;-41
2021/03/08 01:45:20;;;;;;;46.72;31.40;;;;;;;2.83;68.20;102411.28;5075677;28;20028;-41
2021/03/08 01:47:47;;;;;;;42.75;29.02;;;;;;;2.80;68.88;102419.56;5075354;28;20143;-41
2021/03/08 01:50:23;;;;;;;45.42;30.60;;;;;;;2.79;69.34;102412.56;5075494;28;20037;-41
2021/03/08 01:52:50;;;;;;;44.53;29.85;;;;;;;2.80;68.68;102403.53;5075302;28;20025;-41
2021/03/08 01:55:16;;;;;;;43.35;29.17;;;;;;;2.80;68.51;102402.72;5075175;28;20032;-41
2021/03/08 01:57:41;;;;;;;46.35;30.95;;;;;;;2.80;68.65;102406.22;5074907;28;20472;-40
2021/03/08 02:00:07;;;;;;;47.47;31.33;;;;;;;2.81;68.65;102404.38;5075424;28;20103;-41
2021/03/08 02:02:34;;;;;;;46.58;30.23;;;;;;;2.78;69.51;102402.84;5074857;28;20431;-41
2021/03/08 02:04:59;;;;;;;45.70;30.27;;;;;;;2.79;69.41;102406.38;5075475;28;20048;-41
2021/03/08 02:07:25;;;;;;;46.42;30.27;;;;;;;2.80;69.64;102410.72;5075023;28;20269;-40
2021/03/08 02:09:50;;;;;;;47.67;30.10;;;;;;;2.78;69.38;102399.31;5075686;28;20098;-41
2021/03/08 02:12:45;;;;;;;47.07;31.50;;;;;;;2.82;68.34;102398.88;5074637;28;20116;-41
2021/03/08 02:15:39;;;;;;;44.67;30.50;;;;;;;2.78;69.14;102392.16;5074781;28;20021;-41
2021/03/08 02:18:18;;;;;;;45.97;29.10;;;;;;;2.76;68.78;102393.28;5075294;28;20039;-41
2021/03/08 02:21:05;;;;;;;50.45;31.27;;;;;;;2.72;68.96;102395.38;5074500;28;20033;-41
2021/03/08 02:24:08;;;;;;;46.65;31.60;;;;;;;2.72;68.96;102398.06;5075250;28;20350;-41
2021/03/08 02:27:12;;;;;;;43.15;30.20;;;;;;;2.74;68.79;102401.44;5075216;28;20023;-41
2021/03/08 02:29:49;;;;;;;45.33;29.67;;;;;;;2.72;69.33;102394.53;5032966;28;20045;-40
2021/03/08 02:32:18;;;;;;;46.72;29.88;;;;;;;2.68;69.76;102390.47;5032265;28;20210;-41
2021/03/08 02:34:46;;;;;;;43.50;29.45;;;;;;;2.65;69.22;102383.59;5032710;28;20033;-41
2021/03/08 02:37:20;;;;;;;45.17;29.98;;;;;;;2.68;69.59;102382.44;5032666;28;20402;-41
2021/03/08 02:39:49;;;;;;;45.10;30.25;;;;;;;2.59;69.29;102381.50;5032362;28;20033;-41
2021/03/08 02:42:29;;;;;;;47.95;29.55;;;;;;;2.63;69.72;102382.03;5032086;28;20541;-41
2021/03/08 02:44:58;;;;;;;44.17;30.08;;;;;;;2.61;70.02;102390.19;5032312;28;20083;-41
2021/03/08 02:47:26;;;;;;;48.10;30.42;;;;;;;2.61;69.54;102384.84;5032363;28;20041;-41
2021/03/08 02:49:54;;;;;;;44.20;29.85;;;;;;;2.59;69.63;102376.16;5032461;28;20038;-41
2021/03/08 02:52:22;;;;;;;51.15;31.77;;;;;;;2.57;69.84;102370.94;5031742;28;20533;-41
2021/03/08 02:54:53;;;;;;;45.28;31.75;;;;;;;2.51;70.43;102360.81;5032140;28;20030;-41
2021/03/08 02:57:23;;;;;;;44.70;29.40;;;;;;;2.57;69.96;102365.59;5032357;28;20025;-41
2021/03/08 02:59:50;;;;;;;47.05;30.55;;;;;;;2.56;69.90;102366.59;5031903;28;20124;-41
2021/03/08 03:02:17;;;;;;;46.35;30.77;;;;;;;2.55;70.13;102362.22;5032461;28;20034;-41
2021/03/08 03:04:46;;;;;;;50.00;30.20;;;;;;;2.52;69.86;102357.16;5031497;28;20064;-41
2021/03/08 03:07:15;;;;;;;44.83;31.35;;;;;;;2.52;70.36;102357.16;5066494;28;20067;-41
2021/03/08 03:09:42;;;;;;;46.05;30.65;;;;;;;2.51;70.01;102360.81;5073996;28;20029;-41
2021/03/08 03:12:09;;;;;;;48.40;30.83;;;;;;;2.53;69.91;102356.16;5073774;28;20035;-40
2021/03/08 03:14:35;;;;;;;46.47;30.58;;;;;;;2.50;70.16;102355.63;5074023;28;20047;-41
2021/03/08 03:17:09;;;;;;;;;;;;;;;2.60;69.41;102350.28;5073902;28;20392;-40
2021/03/08 03:19:37;;;;;;;44.13;29.52;;;;;;;2.52;70.90;102359.00;5073622;28;20315;-41
2021/03/08 03:22:04;;;;;;;46.95;31.65;;;;;;;2.44;70.58;102353.50;5074479;28;20040;-41
2021/03/08 03:24:31;;;;;;;45.70;30.58;;;;;;;2.40;71.33;102354.78;5073746;28;20033;-41
2021/03/08 03:26:58;;;;;;;46.78;31.55;;;;;;;2.45;70.91;102352.53;5072699;28;20103;-41
2021/03/08 03:29:24;;;;;;;51.90;32.53;;;;;;;2.38;70.93;102354.06;5073799;28;20443;-41
2021/03/08 03:31:50;;;;;;;44.70;29.55;;;;;;;2.42;71.43;102355.47;5073101;28;20141;-41
2021/03/08 03:34:18;;;;;;;46.08;31.25;;;;;;;2.39;71.34;102359.28;5073337;28;20059;-41
2021/03/08 03:36:46;;;;;;;46.45;31.67;;;;;;;2.37;71.46;102365.75;5073561;28;20028;-41
2021/03/08 03:39:12;;;;;;;45.97;31.20;;;;;;;2.35;71.37;102367.72;5073431;28;20040;-41
2021/03/08 03:41:39;;;;;;;49.65;31.33;;;;;;;2.39;71.81;102377.97;5073399;28;20078;-41
2021/03/08 03:44:07;;;;;;;49.83;31.40;;;;;;;2.41;71.76;102375.16;5073733;28;20457;-41
2021/03/08 03:46:36;;;;;;;47.42;31.80;;;;;;;2.43;71.39;102382.03;5073428;28;20028;-41
2021/03/08 03:49:03;;;;;;;49.20;31.08;;;;;;;2.46;71.50;102376.44;5073364;28;20485;-41
2021/03/08 03:51:28;;;;;;;;;;;;;;;2.53;70.61;102371.34;5073485;28;20032;-41
2021/03/08 03:53:53;;;;;;;46.83;30.13;;;;;;;2.47;71.33;102387.94;5073705;28;19999;-41
2021/03/08 03:56:22;;;;;;;45.67;30.20;;;;;;;2.47;71.65;102387.94;5073089;28;20027;-41
2021/03/08 03:58:53;;;;;;;50.25;32.17;;;;;;;2.38;71.61;102389.63;5073329;28;20021;-41
2021/03/08 04:01:28;;;;;;;45.97;30.52;;;;;;;2.41;71.45;102383.16;5073552;28;20099;-41
2021/03/08 04:04:00;;;;;;;46.92;30.25;;;;;;;2.44;71.14;102388.22;5073406;28;20135;-41
2021/03/08 04:06:32;;;;;;;48.08;31.92;;;;;;;2.43;71.30;102394.53;5073500;28;20040;-41
2021/03/08 04:08:58;;;;;;;45.00;31.25;;;;;;;2.41;71.46;102397.38;5073680;28;20032;-41
2021/03/08 04:11:29;;;;;;;36.88;25.80;;;;;;;2.43;73.02;102392.72;5073495;28;20460;-41
2021/03/08 04:13:56;;;;;;;48.90;31.23;;;;;;;2.42;71.76;102392.88;5073474;28;20031;-41
2021/03/08 04:16:22;;;;;;;51.53;33.47;;;;;;;2.38;71.86;102396.78;5074010;28;20129;-41
2021/03/08 04:18:50;;;;;;;44.35;30.23;;;;;;;2.33;72.18;102387.38;5073046;28;20028;-41
2021/03/08 04:21:16;;;;;;;52.45;32.42;;;;;;;2.26;72.06;102386.25;5073074;28;20067;-41
2021/03/08 04:23:42;;;;;;;48.75;32.22;;;;;;;2.30;72.04;102387.66;5073880;28;20028;-41
2021/03/08 04:26:09;;;;;;;48.55;31.83;;;;;;;2.27;72.63;102397.78;5073099;28;20029;-41
2021/03/08 04:28:36;;;;;;;44.65;29.50;;;;;;;2.29;73.28;102385.13;5073268;28;20422;-41
2021/03/08 04:31:04;;;;;;;49.33;31.10;;;;;;;2.23;72.70;102399.03;5072698;28;20064;-41
2021/03/08 04:33:30;;;;;;;41.30;28.52;;;;;;;2.25;72.48;102400.59;5072985;28;20028;-41
2021/03/08 04:35:56;;;;;;;;;;;;;;;2.30;71.48;102401.00;5073503;28;20484;-41
2021/03/08 04:38:21;;;;;;;51.70;31.52;;;;;;;2.24;72.06;102398.03;5073726;28;19916;-41
2021/03/08 04:40:49;;;;;;;49.03;32.50;;;;;;;2.25;72.33;102407.75;5073007;28;20168;-40
2021/03/08 04:43:15;;;;;;;48.55;31.88;;;;;;;2.18;72.36;102404.78;5074691;28;20060;-41
2021/03/08 04:45:41;;;;;;;48.00;32.15;;;;;;;2.15;72.92;102410.41;5077144;28;20064;-41
2021/03/08 04:48:07;;;;;;;47.22;31.98;;;;;;;2.13;73.16;102415.03;5076485;28;20077;-41
2021/03/08 04:50:33;;;;;;;;;;;;;;;2.24;71.39;102414.88;5076753;28;20036;-41
2021/03/08 04:52:59;;;;;;;47.33;31.10;;;;;;;2.15;73.13;102404.19;5076692;28;20010;-41
2021/03/08 04:55:28;;;;;;;47.95;32.45;;;;;;;2.18;72.60;102411.94;5076675;28;20064;-41
2021/03/08 04:57:54;;;;;;;50.40;32.83;;;;;;;2.14;73.16;102416.69;5076611;28;20024;-41
2021/03/08 05:00:21;;;;;;;48.47;31.43;;;;;;;2.16;72.79;102417.44;5077335;28;20452;-41
2021/03/08 05:02:51;;;;;;;45.33;31.30;;;;;;;2.22;73.09;102421.38;5075828;28;20040;-41
2021/03/08 05:05:21;;;;;;;48.88;31.58;;;;;;;2.26;72.77;102422.78;5077310;28;20044;-41
2021/03/08 05:07:47;;;;;;;48.22;31.95;;;;;;;2.22;73.97;102413.34;5076955;28;20039;-41
2021/03/08 05:10:17;;;;;;;49.78;32.20;;;;;;;2.19;73.86;102419.81;5075762;28;20029;-41
2021/03/08 05:12:43;;;;;;;47.65;32.83;;;;;;;2.19;73.22;102411.78;5076249;28;20028;-41
2021/03/08 05:15:12;;;;;;;50.23;33.47;;;;;;;2.15;73.23;102413.06;5076056;28;20033;-41
2021/03/08 05:17:38;;;;;;;50.25;30.52;;;;;;;2.19;74.33;102411.78;5075920;28;20036;-41
2021/03/08 05:20:05;;;;;;;48.13;32.72;;;;;;;2.21;72.73;102414.34;5076569;28;20044;-41
2021/03/08 05:22:35;;;;;;;48.15;31.10;;;;;;;2.23;73.67;102415.03;5075806;28;20033;-41
2021/03/08 05:25:01;;;;;;;49.45;32.08;;;;;;;2.21;73.19;102414.34;5075856;28;20120;-41
2021/03/08 05:27:26;;;;;;;49.20;32.22;;;;;;;2.25;72.48;102405.94;5075510;28;20052;-41
2021/03/08 05:29:54;;;;;;;47.35;32.22;;;;;;;2.29;72.76;102417.16;5076033;28;20074;-41
2021/03/08 05:32:29;;;;;;;48.70;32.55;;;;;;;2.30;72.60;102416.19;5075393;28;20035;-41
2021/03/08 05:34:56;;;;;;;44.10;30.02;;;;;;;2.31;73.80;102424.06;5075911;28;20103;-41
2021/03/08 05:37:22;;;;;;;45.67;30.98;;;;;;;2.25;73.58;102416.59;5075059;28;20131;-41
2021/03/08 05:39:49;;;;;;;49.65;31.05;;;;;;;2.32;74.13;102415.06;5075597;28;20056;-41
2021/03/08 05:42:16;;;;;;;48.42;31.33;;;;;;;2.32;73.78;102415.06;5075224;28;20492;-41
2021/03/08 05:44:53;;;;;;;46.47;32.58;;;;;;;2.36;73.08;102409.44;5076025;28;20024;-41
2021/03/08 05:47:33;;;;;;;49.25;33.17;;;;;;;2.33;72.64;102419.41;5075129;28;20032;-41
2021/03/08 05:50:07;;;;;;;49.63;32.30;;;;;;;2.31;73.37;102410.69;5075798;28;20503;-41
2021/03/08 05:52:52;;;;;;;55.22;32.80;;;;;;;2.34;73.17;102412.22;5075118;28;20423;-41
2021/03/08 05:55:42;;;;;;;51.22;34.28;;;;;;;2.31;73.12;102417.88;5075521;28;20028;-41
2021/03/08 05:58:28;;;;;;;46.85;30.65;;;;;;;2.33;73.36;102422.06;5075451;28;20024;-41
2021/03/08 06:01:24;;;;;;;44.65;27.48;;;;;;;2.39;74.32;102428.72;5075099;28;20029;-41
2021/03/08 06:04:18;;;;;;;48.15;32.55;;;;;;;2.28;74.14;102421.66;5075610;28;20044;-41
2021/03/08 06:07:01;;;;;;;49.70;33.10;;;;;;;2.37;73.06;102430.66;5074565;28;20374;-41
2021/03/08 06:09:27;;;;;;;48.80;33.00;;;;;;;2.33;72.87;102424.75;5075479;28;20023;-41
2021/03/08 06:11:56;;;;;;;;;;;;;;;2.42;72.15;102430.25;5075134;28;20017;-41
2021/03/08 06:14:49;;;;;;;43.50;28.63;;;;;;;2.41;74.14;102429.41;5074665;28;19908;-41
2021/03/08 06:17:16;;;;;;;50.55;33.70;;;;;;;2.34;73.24;102438.94;5073210;28;20388;-41
2021/03/08 06:19:42;;;;;;;48.05;32.13;;;;;;;2.33;74.11;102434.59;5075671;28;20107;-41
2021/03/08 06:22:12;;;;;;;46.85;30.95;;;;;;;2.33;74.62;102432.75;5074709;28;20457;-41
2021/03/08 06:24:42;;;;;;;43.55;28.58;;;;;;;2.32;74.67;102432.91;5073528;28;20064;-41
2021/03/08 06:27:09;;;;;;;47.10;30.13;;;;;;;2.37;74.79;102443.16;5074491;28;20064;-41
2021/03/08 06:29:36;;;;;;;50.72;33.08;;;;;;;2.32;73.95;102428.41;5075112;28;20379;-41
2021/03/08 06:32:02;;;;;;;49.47;33.20;;;;;;;2.37;74.50;102433.31;5075222;28;20039;-41
2021/03/08 06:34:28;;;;;;;51.53;33.22;;;;;;;2.31;73.67;102433.88;5074432;28;20052;-41
2021/03/08 06:36:54;;;;;;;49.63;33.00;;;;;;;2.40;73.64;102437.56;5074473;28;20484;-41
2021/03/08 06:39:20;;;;;;;51.60;32.78;;;;;;;2.37;75.12;102435.16;5074131;28;20495;-41
2021/03/08 06:41:46;;;;;;;53.80;35.28;;;;;;;2.34;74.05;102441.59;5074340;28;20028;-41
2021/03/08 06:44:12;;;;;;;51.85;33.47;;;;;;;2.41;75.68;102448.09;5074648;28;20082;-41
2021/03/08 06:46:37;;;;;;;50.95;33.13;;;;;;;2.39;74.92;102438.53;5074224;28;20032;-41
2021/03/08 06:49:03;;;;;;;50.95;33.47;;;;;;;2.39;74.59;102438.53;5072772;28;20044;-41
2021/03/08 06:51:29;;;;;;;55.17;35.07;;;;;;;2.40;74.37;102445.56;5074143;28;20108;-41
2021/03/08 06:53:54;;;;;;;50.10;33.03;;;;;;;2.46;74.82;102445.00;5074258;28;20060;-41
2021/03/08 06:56:23;;;;;;;56.80;35.55;;;;;;;2.49;73.70;102444.72;5073775;28;20037;-41
2021/03/08 06:59:15;;;;;;;52.50;35.85;;;;;;;2.53;74.33;102452.31;5074611;28;20033;-41
2021/03/08 07:01:42;;;;;;;52.75;35.03;;;;;;;2.58;74.42;102443.88;5074466;28;20079;-41
2021/03/08 07:04:11;;;;;;;53.25;34.22;;;;;;;2.56;73.72;102441.34;5072908;28;20048;-41
2021/03/08 07:06:37;;;;;;;52.78;35.35;;;;;;;2.59;74.47;102450.94;5073600;28;20047;-41
2021/03/08 07:09:13;;;;;;;54.97;34.90;;;;;;;2.66;73.83;102454.72;5074649;28;20036;-41
2021/03/08 07:11:38;;;;;;;55.88;35.25;;;;;;;2.65;73.59;102455.72;5073881;28;20029;-41
2021/03/08 07:14:21;;;;;;;55.35;35.65;;;;;;;2.71;73.61;102455.16;5073845;28;20032;-41
2021/03/08 07:16:46;;;;;;;56.25;36.22;;;;;;;2.73;72.93;102450.53;5073416;28;20499;-41
2021/03/08 07:19:12;;;;;;;54.60;35.43;;;;;;;2.76;73.26;102454.72;5073818;28;20020;-41
2021/03/08 07:21:38;;;;;;;54.17;35.17;;;;;;;2.75;73.55;102453.03;5073657;28;20478;-41
2021/03/08 07:24:13;;;;;;;51.03;34.27;;;;;;;2.81;73.07;102455.97;5074333;28;20028;-41
2021/03/08 07:26:49;;;;;;;54.33;35.17;;;;;;;2.82;73.00;102457.66;5073581;28;20046;-41
2021/03/08 07:29:16;;;;;;;58.47;37.58;;;;;;;2.86;73.65;102470.75;5073908;28;20042;-41
2021/03/08 07:31:44;;;;;;;72.32;47.17;;;;;;;2.81;72.97;102466.66;5073504;28;20020;-41
2021/03/08 07:34:10;;;;;;;68.70;43.70;;;;;;;2.89;73.09;102473.16;5074083;28;20027;-40
2021/03/08 07:36:40;;;;;;;63.63;41.22;;;;;;;2.95;72.83;102472.59;5073463;28;20032;-41
2021/03/08 07:39:09;;;;;;;68.22;44.20;;;;;;;2.95;73.01;102472.59;5074308;28;20082;-41
2021/03/08 07:41:34;;;;;;;69.65;46.10;;;;;;;3.02;73.18;102473.69;5073498;28;20035;-41
2021/03/08 07:44:07;;;;;;;100.57;63.20;;;;;;;3.05;72.65;102473.44;5074303;28;20111;-41
2021/03/08 07:46:33;;;;;;;101.90;64.82;;;;;;;3.07;72.11;102479.47;5073200;28;20024;-41
2021/03/08 07:49:01;;;;;;;89.47;57.77;;;;;;;3.16;72.38;102480.44;5073393;28;20531;-41
2021/03/08 07:51:27;;;;;;;78.88;50.90;;;;;;;3.16;72.84;102485.78;5072988;28;20028;-41
2021/03/08 07:54:05;;;;;;;72.63;46.17;;;;;;;3.23;72.02;102486.94;5073715;28;20024;-40
2021/03/08 07:56:32;;;;;;;60.65;39.15;;;;;;;3.26;71.87;102479.44;5073904;28;20032;-40
2021/03/08 07:58:58;;;;;;;61.30;39.40;;;;;;;3.31;72.24;102482.53;5073327;28;20035;-40
2021/03/08 08:01:24;;;;;;;58.30;37.47;;;;;;;3.36;71.67;102476.75;5073221;28;20021;-40
2021/03/08 08:03:50;;;;;;;56.13;36.17;;;;;;;3.39;72.01;102467.59;5073254;28;20056;-40
2021/03/08 08:06:24;;;;;;;61.10;39.10;;;;;;;3.47;71.20;102473.09;5073021;28;20488;-40
2021/03/08 08:08:51;;;;;;;61.75;39.70;;;;;;;3.49;71.28;102474.63;5073084;28;20111;-40
2021/03/08 08:11:21;;;;;;;58.00;39.78;;;;;;;3.55;71.13;102468.69;5073534;28;20417;-41
2021/03/08 08:14:04;;;;;;;63.00;41.40;;;;;;;3.65;71.06;102474.00;5072810;28;20054;-41
2021/03/08 08:16:34;;;;;;;64.47;42.63;;;;;;;3.65;70.97;102471.31;5073111;28;20067;-41
2021/03/08 08:19:03;;;;;;;60.17;39.90;;;;;;;3.72;70.79;102469.78;5076375;28;20029;-41
2021/03/08 08:21:34;;;;;;;56.72;39.42;;;;;;;3.82;70.29;102473.25;5077308;28;20024;-41
2021/03/08 08:24:03;;;;;;;52.15;36.10;;;;;;;3.86;70.06;102469.28;5077253;28;20029;-41
2021/03/08 08:26:29;;;;;;;55.78;35.03;;;;;;;3.92;69.79;102469.69;5076675;28;20536;-41
2021/03/08 08:28:55;;;;;;;51.05;34.78;;;;;;;3.94;69.65;102468.53;5076773;28;20146;-41
2021/03/08 08:31:21;;;;;;;50.25;33.45;;;;;;;4.07;70.05;102470.88;5076603;28;20469;-41
2021/03/08 08:33:46;;;;;;;49.33;33.10;;;;;;;4.18;69.75;102459.97;5076471;28;20025;-41
2021/03/08 08:36:13;;;;;;;49.70;34.47;;;;;;;4.23;68.92;102459.53;5076760;28;20166;-41
2021/03/08 08:38:54;;;;;;;52.33;34.58;;;;;;;4.30;69.35;102461.47;5076007;28;20282;-40
2021/03/08 08:41:19;;;;;;;47.45;33.15;;;;;;;4.32;67.90;102464.81;5076638;28;20028;-40
2021/03/08 08:43:46;;;;;;;50.90;33.93;;;;;;;4.42;68.94;102463.91;5076917;28;20081;-40
2021/03/08 08:46:23;;;;;;;46.53;32.05;;;;;;;4.46;68.33;102466.16;5076592;28;20031;-41
2021/03/08 08:49:10;;;;;;;48.83;32.60;;;;;;;4.51;67.91;102468.38;5076438;28;20028;-41
2021/03/08 08:51:52;;;;;;;;;;;;;;;4.61;68.60;102466.47;5076294;28;20055;-41
2021/03/08 08:54:46;;;;;;;47.28;31.98;;;;;;;4.62;68.12;102468.16;5076295;28;19915;-41
2021/03/08 08:57:12;;;;;;;45.42;31.08;;;;;;;4.64;67.14;102468.84;5074966;28;20124;-41
2021/03/08 08:59:38;;;;;;;42.73;30.40;;;;;;;4.69;67.07;102461.19;5076068;28;20503;-41
2021/03/08 09:02:13;;;;;;;49.38;32.30;;;;;;;4.73;66.80;102462.56;5076899;28;20032;-42
2021/03/08 09:04:39;;;;;;;45.30;31.25;;;;;;;4.81;66.52;102469.84;5076352;28;20075;-42
2021/03/08 09:07:21;;;;;;;46.03;31.52;;;;;;;4.85;66.71;102458.66;5076098;28;20028;-41
2021/03/08 09:09:47;;;;;;;47.15;31.67;;;;;;;4.93;66.10;102467.75;5075833;28;20025;-41
2021/03/08 09:12:28;;;;;;;45.77;30.00;;;;;;;4.98;66.18;102473.50;5075830;28;20028;-41
2021/03/08 09:15:01;;;;;;;43.08;30.35;;;;;;;5.04;65.82;102472.91;5075759;28;20032;-41
2021/03/08 09:17:33;;;;;;;42.22;29.95;;;;;;;5.04;65.59;102473.75;5075990;28;20032;-41
2021/03/08 09:19:59;;;;;;;43.15;31.65;;;;;;;5.09;65.63;102470.59;5075877;28;20489;-41
2021/03/08 09:22:27;;;;;;;43.60;30.53;;;;;;;5.12;65.17;102471.13;5075939;28;20033;-41
2021/03/08 09:25:20;;;;;;;43.35;31.05;;;;;;;5.13;65.31;102463.94;5076074;28;20144;-41
2021/03/08 09:28:00;;;;;;;41.55;30.45;;;;;;;5.17;65.71;102465.28;5068728;28;20045;-41
2021/03/08 09:30:31;;;;;;;41.97;28.60;;;;;;;5.26;65.01;102460.81;5075333;28;20491;-41
2021/03/08 09:33:17;;;;;;;38.05;28.88;;;;;;;5.31;64.83;102461.19;5075783;28;20147;-41
2021/03/08 09:35:48;;;;;;;39.25;29.77;;;;;;;5.35;64.37;102451.84;5076553;28;20476;-41
2021/03/08 09:38:16;;;;;;;40.88;28.38;;;;;;;5.38;63.61;102451.53;5076231;28;20063;-41
2021/03/08 09:40:44;;;;;;;43.33;28.95;;;;;;;5.46;64.15;102454.25;5076148;28;20040;-41
2021/03/08 09:43:31;;;;;;;39.38;27.27;;;;;;;5.53;64.47;102455.31;5075760;28;20021;-41
2021/03/08 09:46:23;;;;;;;41.47;29.35;;;;;;;5.58;64.34;102461.06;5075508;28;20035;-41
2021/03/08 09:48:53;;;;;;;40.88;27.73;;;;;;;5.64;63.45;102452.34;5073837;28;20393;-41
2021/03/08 09:51:19;;;;;;;38.60;27.50;;;;;;;5.70;62.75;102456.25;5076232;28;20468;-41
2021/03/08 09:53:44;;;;;;;;;;;;;;;5.83;64.03;102453.97;5075764;28;20025;-41
2021/03/08 09:56:13;;;;;;;40.93;28.20;;;;;;;5.81;62.93;102452.47;5075508;28;20360;-41
2021/03/08 09:58:39;;;;;;;35.97;26.63;;;;;;;5.83;62.21;102455.81;5075212;28;20055;-41
2021/03/08 10:01:31;;;;;;;35.45;25.27;;;;;;;5.94;63.48;102453.69;5075505;28;20028;-41
2021/03/08 10:03:56;;;;;;;36.05;25.48;;;;;;;6.01;62.13;102445.88;5073122;28;20052;-41
2021/03/08 10:06:26;;;;;;;37.78;24.52;;;;;;;6.04;61.13;102447.38;5075207;28;20044;-41
2021/03/08 10:08:52;;;;;;;32.22;22.13;;;;;;;6.03;59.86;102443.84;5074991;28;20017;-41
2021/03/08 10:11:25;;;;;;;31.25;22.55;;;;;;;6.12;60.45;102445.56;5075322;28;20033;-41
2021/03/08 10:13:51;;;;;;;31.60;23.35;;;;;;;6.21;60.82;102448.28;5074963;28;20020;-41
2021/03/08 10:16:22;;;;;;;33.05;23.92;;;;;;;6.24;59.10;102448.78;5075184;28;20062;-41
2021/03/08 10:18:47;;;;;;;39.35;27.95;;;;;;;6.21;59.85;102442.91;5074849;28;20085;-41
2021/03/08 10:21:14;;;;;;;36.93;24.23;;;;;;;6.18;59.86;102444.06;5075139;28;20112;-41
2021/03/08 10:23:39;;;;;;;34.08;24.83;;;;;;;6.26;59.83;102456.69;5074774;28;20033;-41
2021/03/08 10:26:10;;;;;;;31.83;23.93;;;;;;;6.35;59.80;102445.81;5075070;28;20028;-41
2021/03/08 10:28:39;;;;;;;33.28;23.10;;;;;;;6.41;59.27;102447.00;5074266;28;20035;-41
2021/03/08 10:31:07;;;;;;;29.70;22.95;;;;;;;6.40;58.73;102443.47;5074615;28;20064;-41
2021/03/08 10:33:33;;;;;;;30.77;23.13;;;;;;;6.42;59.11;102451.34;5074236;28;20070;-41
2021/03/08 10:35:59;;;;;;;;;;;;;;;6.55;60.79;102445.50;5075488;28;20071;-41
2021/03/08 10:38:34;;;;;;;34.88;23.80;;;;;;;6.56;59.39;102439.97;5074876;28;20080;-41
2021/03/08 10:41:01;;;;;;;29.92;21.08;;;;;;;6.59;58.02;102450.41;5073872;28;20040;-41
2021/03/08 10:43:29;;;;;;;27.42;20.95;;;;;;;6.64;57.79;102449.91;5074568;28;20449;-41
2021/03/08 10:45:56;;;;;;;28.73;20.23;;;;;;;6.54;57.00;102439.31;5074663;28;20036;-41
2021/03/08 10:48:25;;;;;;;31.95;21.75;;;;;;;6.58;57.78;102446.00;5073987;28;20115;-41
2021/03/08 10:50:52;;;;;;;28.50;20.35;;;;;;;6.56;57.28;102441.81;5074949;28;20032;-41
2021/03/08 10:53:23;;;;;;;29.08;20.15;;;;;;;6.61;57.56;102439.47;5074174;28;20434;-41
2021/03/08 10:55:49;;;;;;;27.40;20.05;;;;;;;6.70;57.31;102443.84;5074917;28;20047;-41
2021/03/08 10:58:16;;;;;;;28.65;20.15;;;;;;;6.75;57.47;102440.66;5074550;28;20185;-41
2021/03/08 11:00:43;;;;;;;29.20;20.20;;;;;;;6.76;57.61;102445.88;5073840;28;20560;-41
2021/03/08 11:03:38;;;;;;;28.45;20.92;;;;;;;6.86;57.97;102438.47;5073880;28;20021;-41
2021/03/08 11:06:11;;;;;;;28.25;21.60;;;;;;;6.88;57.18;102441.00;5074542;28;20036;-41
2021/03/08 11:08:39;;;;;;;32.10;22.20;;;;;;;6.91;57.06;102438.81;5073974;28;20116;-41
2021/03/08 11:11:18;;;;;;;27.42;20.80;;;;;;;7.02;57.23;102442.16;5073541;28;20025;-41
2021/03/08 11:13:44;;;;;;;27.23;20.33;;;;;;;7.03;56.36;102439.34;5073842;28;20036;-41
2021/03/08 11:16:10;;;;;;;25.13;19.25;;;;;;;7.12;56.48;102440.97;5074147;28;20032;-41
2021/03/08 11:18:36;;;;;;;25.95;18.83;;;;;;;7.11;55.23;102441.16;5074013;28;20021;-41
2021/03/08 11:21:23;;;;;;;23.20;18.00;;;;;;;7.27;55.20;102445.69;5073486;28;20507;-41
2021/03/08 11:23:49;;;;;;;27.65;18.80;;;;;;;7.29;54.98;102444.50;5074064;28;20384;-41
2021/03/08 11:26:15;;;;;;;;;;;;;;;7.43;57.15;102446.50;5094498;28;20391;-41
2021/03/08 11:28:41;;;;;;;23.88;18.02;;;;;;;7.36;54.61;102445.50;5093818;28;19908;-41
2021/03/08 11:31:17;;;;;;;;;;;;;;;7.53;56.59;102446.31;5093876;28;20028;-41